sensor_id;sensor_type;location;lat;lon;timestamp;P1;P2;P0
73517;PMS5003;61766;60.318;25.044;2024-02-26T00:01:24;23;20;
73517;PMS5003;61766;60.318;25.044;2024-02-26T00:03:49;20;19;
73517;PMS5003;61766;60.318;25.044;2024-02-26T00:06:15;17;17;
73517;PMS5003;61766;60.318;25.044;2024-02-26T00:08:40;20;19;
73517;PMS5003;61766;60.318;25.044;2024-02-26T00:11:05;19;18;
73517;PMS5003;61766;60.318;25.044;2024-02-26T00:13:31;18;18;
73517;PMS5003;61766;60.318;25.044;2024-02-26T00:15:56;20;18;
73517;PMS5003;61766;60.318;25.044;2024-02-26T00:18:22;22;21;
73517;PMS5003;61766;60.318;25.044;2024-02-26T00:20:47;16;16;
73517;PMS5003;61766;60.318;25.044;2024-02-26T00:23:14;20;20;
73517;PMS5003;61766;60.318;25.044;2024-02-26T00:25:38;20;19;
73517;PMS5003;61766;60.318;25.044;2024-02-26T00:28:04;17;17;
73517;PMS5003;61766;60.318;25.044;2024-02-26T00:30:28;23;22;
73517;PMS5003;61766;60.318;25.044;2024-02-26T00:32:54;18;18;
73517;PMS5003;61766;60.318;25.044;2024-02-26T00:35:19;21;20;
73517;PMS5003;61766;60.318;25.044;2024-02-26T00:37:44;17;17;
73517;PMS5003;61766;60.318;25.044;2024-02-26T00:40:10;16;15;
73517;PMS5003;61766;60.318;25.044;2024-02-26T00:42:35;24;23;
73517;PMS5003;61766;60.318;25.044;2024-02-26T00:45:01;20;19;
73517;PMS5003;61766;60.318;25.044;2024-02-26T00:47:27;17;17;
73517;PMS5003;61766;60.318;25.044;2024-02-26T00:49:52;17;17;
73517;PMS5003;61766;60.318;25.044;2024-02-26T00:52:18;19;18;
73517;PMS5003;61766;60.318;25.044;2024-02-26T00:54:44;17;17;
73517;PMS5003;61766;60.318;25.044;2024-02-26T00:57:08;20;19;
73517;PMS5003;61766;60.318;25.044;2024-02-26T00:59:34;21;20;
73517;PMS5003;61766;60.318;25.044;2024-02-26T01:01:59;18;18;
73517;PMS5003;61766;60.318;25.044;2024-02-26T01:04:24;23;21;
73517;PMS5003;61766;60.318;25.044;2024-02-26T01:06:50;18;17;
73517;PMS5003;61766;60.318;25.044;2024-02-26T01:09:15;20;18;
73517;PMS5003;61766;60.318;25.044;2024-02-26T01:11:40;17;17;
73517;PMS5003;61766;60.318;25.044;2024-02-26T01:14:05;21;20;
73517;PMS5003;61766;60.318;25.044;2024-02-26T01:16:31;17;17;
73517;PMS5003;61766;60.318;25.044;2024-02-26T01:18:56;20;19;
73517;PMS5003;61766;60.318;25.044;2024-02-26T01:21:22;17;17;
73517;PMS5003;61766;60.318;25.044;2024-02-26T01:23:47;21;19;
73517;PMS5003;61766;60.318;25.044;2024-02-26T01:26:13;19;19;
73517;PMS5003;61766;60.318;25.044;2024-02-26T01:28:38;22;19;
73517;PMS5003;61766;60.318;25.044;2024-02-26T01:31:04;22;20;
73517;PMS5003;61766;60.318;25.044;2024-02-26T01:33:29;19;17;
73517;PMS5003;61766;60.318;25.044;2024-02-26T01:35:55;15;15;
73517;PMS5003;61766;60.318;25.044;2024-02-26T01:38:20;16;16;
73517;PMS5003;61766;60.318;25.044;2024-02-26T01:40:45;18;18;
73517;PMS5003;61766;60.318;25.044;2024-02-26T01:43:11;20;19;
73517;PMS5003;61766;60.318;25.044;2024-02-26T01:45:36;20;19;
73517;PMS5003;61766;60.318;25.044;2024-02-26T01:48:02;18;17;
73517;PMS5003;61766;60.318;25.044;2024-02-26T01:50:28;16;16;
73517;PMS5003;61766;60.318;25.044;2024-02-26T01:52:53;18;18;
73517;PMS5003;61766;60.318;25.044;2024-02-26T01:55:18;18;18;
73517;PMS5003;61766;60.318;25.044;2024-02-26T01:57:43;18;16;
73517;PMS5003;61766;60.318;25.044;2024-02-26T02:00:09;18;16;
73517;PMS5003;61766;60.318;25.044;2024-02-26T02:02:34;17;16;
73517;PMS5003;61766;60.318;25.044;2024-02-26T02:05:00;16;16;
73517;PMS5003;61766;60.318;25.044;2024-02-26T02:07:25;12;12;
73517;PMS5003;61766;60.318;25.044;2024-02-26T02:09:51;22;22;
73517;PMS5003;61766;60.318;25.044;2024-02-26T02:12:17;17;16;
73517;PMS5003;61766;60.318;25.044;2024-02-26T02:14:42;18;18;
73517;PMS5003;61766;60.318;25.044;2024-02-26T02:17:08;16;16;
73517;PMS5003;61766;60.318;25.044;2024-02-26T02:19:33;20;20;
73517;PMS5003;61766;60.318;25.044;2024-02-26T02:21:58;18;17;
73517;PMS5003;61766;60.318;25.044;2024-02-26T02:24:24;17;16;
73517;PMS5003;61766;60.318;25.044;2024-02-26T02:26:50;17;16;
73517;PMS5003;61766;60.318;25.044;2024-02-26T02:29:15;17;17;
73517;PMS5003;61766;60.318;25.044;2024-02-26T02:31:41;17;17;
73517;PMS5003;61766;60.318;25.044;2024-02-26T02:34:06;17;17;
73517;PMS5003;61766;60.318;25.044;2024-02-26T02:36:32;16;15;
73517;PMS5003;61766;60.318;25.044;2024-02-26T02:38:57;15;15;
73517;PMS5003;61766;60.318;25.044;2024-02-26T02:41:22;16;16;
73517;PMS5003;61766;60.318;25.044;2024-02-26T02:43:48;18;16;
73517;PMS5003;61766;60.318;25.044;2024-02-26T02:46:13;21;19;
73517;PMS5003;61766;60.318;25.044;2024-02-26T02:48:39;21;19;
73517;PMS5003;61766;60.318;25.044;2024-02-26T02:51:04;14;14;
73517;PMS5003;61766;60.318;25.044;2024-02-26T02:53:30;17;16;
73517;PMS5003;61766;60.318;25.044;2024-02-26T02:55:56;18;17;
73517;PMS5003;61766;60.318;25.044;2024-02-26T02:58:21;17;16;
73517;PMS5003;61766;60.318;25.044;2024-02-26T03:00:47;15;14;
73517;PMS5003;61766;60.318;25.044;2024-02-26T03:03:13;16;16;
73517;PMS5003;61766;60.318;25.044;2024-02-26T03:05:38;17;17;
73517;PMS5003;61766;60.318;25.044;2024-02-26T03:08:04;16;16;
73517;PMS5003;61766;60.318;25.044;2024-02-26T03:10:29;17;17;
73517;PMS5003;61766;60.318;25.044;2024-02-26T03:12:55;20;20;
73517;PMS5003;61766;60.318;25.044;2024-02-26T03:15:20;20;19;
73517;PMS5003;61766;60.318;25.044;2024-02-26T03:17:46;17;17;
73517;PMS5003;61766;60.318;25.044;2024-02-26T03:20:11;20;20;
73517;PMS5003;61766;60.318;25.044;2024-02-26T03:22:38;17;17;
73517;PMS5003;61766;60.318;25.044;2024-02-26T03:25:03;23;22;
73517;PMS5003;61766;60.318;25.044;2024-02-26T03:27:28;13;13;
73517;PMS5003;61766;60.318;25.044;2024-02-26T03:29:54;18;17;
73517;PMS5003;61766;60.318;25.044;2024-02-26T03:32:19;17;17;
73517;PMS5003;61766;60.318;25.044;2024-02-26T03:34:44;18;16;
73517;PMS5003;61766;60.318;25.044;2024-02-26T03:37:10;20;19;
73517;PMS5003;61766;60.318;25.044;2024-02-26T03:39:36;22;20;
73517;PMS5003;61766;60.318;25.044;2024-02-26T03:42:01;20;20;
73517;PMS5003;61766;60.318;25.044;2024-02-26T03:44:27;18;18;
73517;PMS5003;61766;60.318;25.044;2024-02-26T03:46:53;21;20;
73517;PMS5003;61766;60.318;25.044;2024-02-26T03:49:18;17;16;
73517;PMS5003;61766;60.318;25.044;2024-02-26T03:51:44;12;12;
73517;PMS5003;61766;60.318;25.044;2024-02-26T03:54:09;14;13;
73517;PMS5003;61766;60.318;25.044;2024-02-26T03:56:35;14;13;
73517;PMS5003;61766;60.318;25.044;2024-02-26T03:59:01;12;12;
73517;PMS5003;61766;60.318;25.044;2024-02-26T04:01:27;15;13;
73517;PMS5003;61766;60.318;25.044;2024-02-26T04:03:52;16;13;
73517;PMS5003;61766;60.318;25.044;2024-02-26T04:06:17;14;13;
73517;PMS5003;61766;60.318;25.044;2024-02-26T04:08:43;14;14;
73517;PMS5003;61766;60.318;25.044;2024-02-26T04:11:08;12;12;
73517;PMS5003;61766;60.318;25.044;2024-02-26T04:13:33;16;14;
73517;PMS5003;61766;60.318;25.044;2024-02-26T04:15:58;13;12;
73517;PMS5003;61766;60.318;25.044;2024-02-26T04:18:24;11;10;
73517;PMS5003;61766;60.318;25.044;2024-02-26T04:20:49;12;10;
73517;PMS5003;61766;60.318;25.044;2024-02-26T04:23:15;15;11;
73517;PMS5003;61766;60.318;25.044;2024-02-26T04:25:41;11;11;
73517;PMS5003;61766;60.318;25.044;2024-02-26T04:28:06;14;12;
73517;PMS5003;61766;60.318;25.044;2024-02-26T04:30:31;16;14;
73517;PMS5003;61766;60.318;25.044;2024-02-26T04:32:57;9;9;
73517;PMS5003;61766;60.318;25.044;2024-02-26T04:35:23;20;19;
73517;PMS5003;61766;60.318;25.044;2024-02-26T04:37:49;13;13;
73517;PMS5003;61766;60.318;25.044;2024-02-26T04:40:14;13;12;
73517;PMS5003;61766;60.318;25.044;2024-02-26T04:42:40;20;19;
73517;PMS5003;61766;60.318;25.044;2024-02-26T04:45:06;15;14;
73517;PMS5003;61766;60.318;25.044;2024-02-26T04:47:31;15;14;
73517;PMS5003;61766;60.318;25.044;2024-02-26T04:49:57;13;13;
73517;PMS5003;61766;60.318;25.044;2024-02-26T04:52:22;15;14;
73517;PMS5003;61766;60.318;25.044;2024-02-26T04:54:48;12;12;
73517;PMS5003;61766;60.318;25.044;2024-02-26T04:57:13;15;14;
73517;PMS5003;61766;60.318;25.044;2024-02-26T04:59:38;13;13;
73517;PMS5003;61766;60.318;25.044;2024-02-26T05:02:04;18;15;
73517;PMS5003;61766;60.318;25.044;2024-02-26T05:04:29;19;19;
73517;PMS5003;61766;60.318;25.044;2024-02-26T05:06:55;21;20;
73517;PMS5003;61766;60.318;25.044;2024-02-26T05:09:21;15;15;
73517;PMS5003;61766;60.318;25.044;2024-02-26T05:11:47;19;19;
73517;PMS5003;61766;60.318;25.044;2024-02-26T05:14:12;18;17;
73517;PMS5003;61766;60.318;25.044;2024-02-26T05:16:38;14;13;
73517;PMS5003;61766;60.318;25.044;2024-02-26T05:19:03;15;14;
73517;PMS5003;61766;60.318;25.044;2024-02-26T05:21:29;25;22;
73517;PMS5003;61766;60.318;25.044;2024-02-26T05:23:54;18;18;
73517;PMS5003;61766;60.318;25.044;2024-02-26T05:26:20;25;23;
73517;PMS5003;61766;60.318;25.044;2024-02-26T05:28:45;20;16;
73517;PMS5003;61766;60.318;25.044;2024-02-26T05:31:12;24;22;
73517;PMS5003;61766;60.318;25.044;2024-02-26T05:33:37;13;13;
73517;PMS5003;61766;60.318;25.044;2024-02-26T05:36:02;13;12;
73517;PMS5003;61766;60.318;25.044;2024-02-26T05:38:27;13;13;
73517;PMS5003;61766;60.318;25.044;2024-02-26T05:40:53;18;18;
73517;PMS5003;61766;60.318;25.044;2024-02-26T05:43:19;18;18;
73517;PMS5003;61766;60.318;25.044;2024-02-26T05:45:44;18;17;
73517;PMS5003;61766;60.318;25.044;2024-02-26T05:48:10;19;19;
73517;PMS5003;61766;60.318;25.044;2024-02-26T05:50:35;17;15;
73517;PMS5003;61766;60.318;25.044;2024-02-26T05:53:01;20;18;
73517;PMS5003;61766;60.318;25.044;2024-02-26T05:55:26;24;23;
73517;PMS5003;61766;60.318;25.044;2024-02-26T05:57:52;15;14;
73517;PMS5003;61766;60.318;25.044;2024-02-26T06:00:18;14;14;
73517;PMS5003;61766;60.318;25.044;2024-02-26T06:02:43;20;19;
73517;PMS5003;61766;60.318;25.044;2024-02-26T06:05:09;19;18;
73517;PMS5003;61766;60.318;25.044;2024-02-26T06:07:34;29;27;
73517;PMS5003;61766;60.318;25.044;2024-02-26T06:09:59;22;22;
73517;PMS5003;61766;60.318;25.044;2024-02-26T06:12:25;23;22;
73517;PMS5003;61766;60.318;25.044;2024-02-26T06:14:50;16;16;
73517;PMS5003;61766;60.318;25.044;2024-02-26T06:17:16;15;15;
73517;PMS5003;61766;60.318;25.044;2024-02-26T06:19:42;12;11;
73517;PMS5003;61766;60.318;25.044;2024-02-26T06:22:07;13;13;
73517;PMS5003;61766;60.318;25.044;2024-02-26T06:24:33;13;13;
73517;PMS5003;61766;60.318;25.044;2024-02-26T06:26:58;11;11;
73517;PMS5003;61766;60.318;25.044;2024-02-26T06:29:24;14;13;
73517;PMS5003;61766;60.318;25.044;2024-02-26T06:31:49;13;13;
73517;PMS5003;61766;60.318;25.044;2024-02-26T06:34:14;13;13;
73517;PMS5003;61766;60.318;25.044;2024-02-26T06:36:40;13;12;
73517;PMS5003;61766;60.318;25.044;2024-02-26T06:39:05;12;11;
73517;PMS5003;61766;60.318;25.044;2024-02-26T06:41:31;12;12;
73517;PMS5003;61766;60.318;25.044;2024-02-26T06:43:56;12;11;
73517;PMS5003;61766;60.318;25.044;2024-02-26T06:46:21;10;10;
73517;PMS5003;61766;60.318;25.044;2024-02-26T06:48:47;12;9;
73517;PMS5003;61766;60.318;25.044;2024-02-26T06:51:11;18;15;
73517;PMS5003;61766;60.318;25.044;2024-02-26T06:53:37;10;10;
73517;PMS5003;61766;60.318;25.044;2024-02-26T06:56:03;11;11;
73517;PMS5003;61766;60.318;25.044;2024-02-26T06:58:28;10;10;
73517;PMS5003;61766;60.318;25.044;2024-02-26T07:00:53;10;9;
73517;PMS5003;61766;60.318;25.044;2024-02-26T07:03:18;9;8;
73517;PMS5003;61766;60.318;25.044;2024-02-26T07:05:44;9;9;
73517;PMS5003;61766;60.318;25.044;2024-02-26T07:08:09;11;10;
73517;PMS5003;61766;60.318;25.044;2024-02-26T07:10:34;9;9;
73517;PMS5003;61766;60.318;25.044;2024-02-26T07:12:59;9;9;
73517;PMS5003;61766;60.318;25.044;2024-02-26T07:15:24;8;8;
73517;PMS5003;61766;60.318;25.044;2024-02-26T07:17:50;11;10;
73517;PMS5003;61766;60.318;25.044;2024-02-26T07:20:15;10;10;
73517;PMS5003;61766;60.318;25.044;2024-02-26T07:22:40;7;7;
73517;PMS5003;61766;60.318;25.044;2024-02-26T07:25:05;8;7;
73517;PMS5003;61766;60.318;25.044;2024-02-26T07:27:30;8;8;
73517;PMS5003;61766;60.318;25.044;2024-02-26T07:29:56;7;7;
73517;PMS5003;61766;60.318;25.044;2024-02-26T07:32:21;8;7;
73517;PMS5003;61766;60.318;25.044;2024-02-26T07:34:46;4;4;
73517;PMS5003;61766;60.318;25.044;2024-02-26T07:37:11;7;7;
73517;PMS5003;61766;60.318;25.044;2024-02-26T07:39:37;10;9;
73517;PMS5003;61766;60.318;25.044;2024-02-26T07:42:02;10;10;
73517;PMS5003;61766;60.318;25.044;2024-02-26T07:44:27;8;8;
73517;PMS5003;61766;60.318;25.044;2024-02-26T07:46:52;8;8;
73517;PMS5003;61766;60.318;25.044;2024-02-26T07:49:18;7;6;
73517;PMS5003;61766;60.318;25.044;2024-02-26T07:51:43;8;8;
73517;PMS5003;61766;60.318;25.044;2024-02-26T07:54:08;9;9;
73517;PMS5003;61766;60.318;25.044;2024-02-26T07:56:33;6;6;
73517;PMS5003;61766;60.318;25.044;2024-02-26T07:58:58;8;8;
73517;PMS5003;61766;60.318;25.044;2024-02-26T08:01:23;9;8;
73517;PMS5003;61766;60.318;25.044;2024-02-26T08:03:49;12;12;
73517;PMS5003;61766;60.318;25.044;2024-02-26T08:06:16;12;11;
73517;PMS5003;61766;60.318;25.044;2024-02-26T08:08:39;10;10;
73517;PMS5003;61766;60.318;25.044;2024-02-26T08:11:05;9;8;
73517;PMS5003;61766;60.318;25.044;2024-02-26T08:13:30;9;9;
73517;PMS5003;61766;60.318;25.044;2024-02-26T08:15:55;8;8;
73517;PMS5003;61766;60.318;25.044;2024-02-26T08:18:20;11;10;
73517;PMS5003;61766;60.318;25.044;2024-02-26T08:20:45;8;8;
73517;PMS5003;61766;60.318;25.044;2024-02-26T08:23:11;9;8;
73517;PMS5003;61766;60.318;25.044;2024-02-26T08:25:36;8;8;
73517;PMS5003;61766;60.318;25.044;2024-02-26T08:28:01;7;7;
73517;PMS5003;61766;60.318;25.044;2024-02-26T08:30:26;6;6;
73517;PMS5003;61766;60.318;25.044;2024-02-26T08:32:51;10;8;
73517;PMS5003;61766;60.318;25.044;2024-02-26T08:35:17;7;7;
73517;PMS5003;61766;60.318;25.044;2024-02-26T08:37:43;7;6;
73517;PMS5003;61766;60.318;25.044;2024-02-26T08:40:07;9;9;
73517;PMS5003;61766;60.318;25.044;2024-02-26T08:42:32;7;7;
73517;PMS5003;61766;60.318;25.044;2024-02-26T08:44:57;8;8;
73517;PMS5003;61766;60.318;25.044;2024-02-26T08:47:22;8;7;
73517;PMS5003;61766;60.318;25.044;2024-02-26T08:49:48;8;8;
73517;PMS5003;61766;60.318;25.044;2024-02-26T08:52:13;8;8;
73517;PMS5003;61766;60.318;25.044;2024-02-26T08:54:38;7;7;
73517;PMS5003;61766;60.318;25.044;2024-02-26T08:57:03;10;9;
73517;PMS5003;61766;60.318;25.044;2024-02-26T08:59:28;9;9;
73517;PMS5003;61766;60.318;25.044;2024-02-26T09:01:53;8;8;
73517;PMS5003;61766;60.318;25.044;2024-02-26T09:04:19;10;10;
73517;PMS5003;61766;60.318;25.044;2024-02-26T09:06:44;7;6;
73517;PMS5003;61766;60.318;25.044;2024-02-26T09:09:09;9;8;
73517;PMS5003;61766;60.318;25.044;2024-02-26T09:11:35;9;9;
73517;PMS5003;61766;60.318;25.044;2024-02-26T09:14:00;10;10;
73517;PMS5003;61766;60.318;25.044;2024-02-26T09:16:25;9;8;
73517;PMS5003;61766;60.318;25.044;2024-02-26T09:18:50;10;10;
73517;PMS5003;61766;60.318;25.044;2024-02-26T09:21:15;9;9;
73517;PMS5003;61766;60.318;25.044;2024-02-26T09:23:40;11;9;
73517;PMS5003;61766;60.318;25.044;2024-02-26T09:26:06;7;6;
73517;PMS5003;61766;60.318;25.044;2024-02-26T09:28:31;9;9;
73517;PMS5003;61766;60.318;25.044;2024-02-26T09:30:56;9;9;
73517;PMS5003;61766;60.318;25.044;2024-02-26T09:33:21;16;15;
73517;PMS5003;61766;60.318;25.044;2024-02-26T09:35:46;12;12;
73517;PMS5003;61766;60.318;25.044;2024-02-26T09:38:11;10;10;
73517;PMS5003;61766;60.318;25.044;2024-02-26T09:40:37;15;15;
73517;PMS5003;61766;60.318;25.044;2024-02-26T09:43:02;8;8;
73517;PMS5003;61766;60.318;25.044;2024-02-26T09:45:28;6;6;
73517;PMS5003;61766;60.318;25.044;2024-02-26T09:47:53;8;7;
73517;PMS5003;61766;60.318;25.044;2024-02-26T09:50:18;6;6;
73517;PMS5003;61766;60.318;25.044;2024-02-26T09:52:43;9;9;
73517;PMS5003;61766;60.318;25.044;2024-02-26T09:55:08;6;6;
73517;PMS5003;61766;60.318;25.044;2024-02-26T09:57:33;12;12;
73517;PMS5003;61766;60.318;25.044;2024-02-26T09:59:59;11;11;
73517;PMS5003;61766;60.318;25.044;2024-02-26T10:02:24;11;10;
73517;PMS5003;61766;60.318;25.044;2024-02-26T10:04:49;12;11;
73517;PMS5003;61766;60.318;25.044;2024-02-26T10:07:14;8;8;
73517;PMS5003;61766;60.318;25.044;2024-02-26T10:09:39;10;9;
73517;PMS5003;61766;60.318;25.044;2024-02-26T10:12:05;6;6;
73517;PMS5003;61766;60.318;25.044;2024-02-26T10:14:30;6;6;
73517;PMS5003;61766;60.318;25.044;2024-02-26T10:16:55;5;5;
73517;PMS5003;61766;60.318;25.044;2024-02-26T10:19:25;8;6;
73517;PMS5003;61766;60.318;25.044;2024-02-26T10:21:45;6;6;
73517;PMS5003;61766;60.318;25.044;2024-02-26T10:24:12;7;6;
73517;PMS5003;61766;60.318;25.044;2024-02-26T10:26:36;5;5;
73517;PMS5003;61766;60.318;25.044;2024-02-26T10:29:01;4;4;
73517;PMS5003;61766;60.318;25.044;2024-02-26T10:31:26;7;5;
73517;PMS5003;61766;60.318;25.044;2024-02-26T10:33:51;6;5;
73517;PMS5003;61766;60.318;25.044;2024-02-26T10:36:16;6;6;
73517;PMS5003;61766;60.318;25.044;2024-02-26T10:38:41;6;6;
73517;PMS5003;61766;60.318;25.044;2024-02-26T10:41:07;5;5;
73517;PMS5003;61766;60.318;25.044;2024-02-26T10:43:32;5;5;
73517;PMS5003;61766;60.318;25.044;2024-02-26T10:45:57;5;5;
73517;PMS5003;61766;60.318;25.044;2024-02-26T10:48:22;3;3;
73517;PMS5003;61766;60.318;25.044;2024-02-26T10:50:47;5;5;
73517;PMS5003;61766;60.318;25.044;2024-02-26T10:53:13;4;4;
73517;PMS5003;61766;60.318;25.044;2024-02-26T10:55:37;5;5;
73517;PMS5003;61766;60.318;25.044;2024-02-26T10:58:03;5;5;
73517;PMS5003;61766;60.318;25.044;2024-02-26T11:00:28;5;5;
73517;PMS5003;61766;60.318;25.044;2024-02-26T11:02:53;3;3;
73517;PMS5003;61766;60.318;25.044;2024-02-26T11:05:18;4;4;
73517;PMS5003;61766;60.318;25.044;2024-02-26T11:07:43;4;4;
73517;PMS5003;61766;60.318;25.044;2024-02-26T11:10:09;4;4;
73517;PMS5003;61766;60.318;25.044;2024-02-26T11:12:34;4;4;
73517;PMS5003;61766;60.318;25.044;2024-02-26T11:14:59;4;4;
73517;PMS5003;61766;60.318;25.044;2024-02-26T11:17:26;7;7;
73517;PMS5003;61766;60.318;25.044;2024-02-26T11:19:49;6;6;
73517;PMS5003;61766;60.318;25.044;2024-02-26T11:22:14;3;3;
73517;PMS5003;61766;60.318;25.044;2024-02-26T11:24:39;6;5;
73517;PMS5003;61766;60.318;25.044;2024-02-26T11:27:04;4;4;
73517;PMS5003;61766;60.318;25.044;2024-02-26T11:29:32;6;5;
73517;PMS5003;61766;60.318;25.044;2024-02-26T11:31:55;6;5;
73517;PMS5003;61766;60.318;25.044;2024-02-26T11:34:20;7;4;
73517;PMS5003;61766;60.318;25.044;2024-02-26T11:36:45;4;4;
73517;PMS5003;61766;60.318;25.044;2024-02-26T11:39:11;8;6;
73517;PMS5003;61766;60.318;25.044;2024-02-26T11:41:36;5;5;
73517;PMS5003;61766;60.318;25.044;2024-02-26T11:44:01;4;4;
73517;PMS5003;61766;60.318;25.044;2024-02-26T11:46:26;4;4;
73517;PMS5003;61766;60.318;25.044;2024-02-26T11:48:51;4;4;
73517;PMS5003;61766;60.318;25.044;2024-02-26T11:51:16;6;4;
73517;PMS5003;61766;60.318;25.044;2024-02-26T11:53:45;6;5;
73517;PMS5003;61766;60.318;25.044;2024-02-26T11:56:13;5;5;
73517;PMS5003;61766;60.318;25.044;2024-02-26T11:58:31;4;4;
73517;PMS5003;61766;60.318;25.044;2024-02-26T12:00:57;4;4;
73517;PMS5003;61766;60.318;25.044;2024-02-26T12:03:21;4;4;
73517;PMS5003;61766;60.318;25.044;2024-02-26T12:05:47;4;4;
73517;PMS5003;61766;60.318;25.044;2024-02-26T12:08:12;4;4;
73517;PMS5003;61766;60.318;25.044;2024-02-26T12:10:37;3;3;
73517;PMS5003;61766;60.318;25.044;2024-02-26T12:13:04;4;4;
73517;PMS5003;61766;60.318;25.044;2024-02-26T12:15:31;3;3;
73517;PMS5003;61766;60.318;25.044;2024-02-26T12:17:52;3;3;
73517;PMS5003;61766;60.318;25.044;2024-02-26T12:20:18;2;2;
73517;PMS5003;61766;60.318;25.044;2024-02-26T12:22:44;4;4;
73517;PMS5003;61766;60.318;25.044;2024-02-26T12:25:08;5;5;
73517;PMS5003;61766;60.318;25.044;2024-02-26T12:27:33;4;4;
73517;PMS5003;61766;60.318;25.044;2024-02-26T12:29:58;5;5;
73517;PMS5003;61766;60.318;25.044;2024-02-26T12:32:23;3;3;
73517;PMS5003;61766;60.318;25.044;2024-02-26T12:34:48;4;4;
73517;PMS5003;61766;60.318;25.044;2024-02-26T12:37:13;6;5;
73517;PMS5003;61766;60.318;25.044;2024-02-26T12:39:39;4;4;
73517;PMS5003;61766;60.318;25.044;2024-02-26T12:42:04;4;4;
73517;PMS5003;61766;60.318;25.044;2024-02-26T12:44:29;5;5;
73517;PMS5003;61766;60.318;25.044;2024-02-26T12:49:19;4;4;
73517;PMS5003;61766;60.318;25.044;2024-02-26T12:51:44;5;5;
73517;PMS5003;61766;60.318;25.044;2024-02-26T12:54:10;4;4;
73517;PMS5003;61766;60.318;25.044;2024-02-26T12:56:35;4;4;
73517;PMS5003;61766;60.318;25.044;2024-02-26T12:59:00;4;4;
73517;PMS5003;61766;60.318;25.044;2024-02-26T13:01:25;3;3;
73517;PMS5003;61766;60.318;25.044;2024-02-26T13:03:50;3;3;
73517;PMS5003;61766;60.318;25.044;2024-02-26T13:06:15;4;3;
73517;PMS5003;61766;60.318;25.044;2024-02-26T13:08:40;4;4;
73517;PMS5003;61766;60.318;25.044;2024-02-26T13:11:05;3;3;
73517;PMS5003;61766;60.318;25.044;2024-02-26T13:13:31;4;4;
73517;PMS5003;61766;60.318;25.044;2024-02-26T13:16:01;9;8;
73517;PMS5003;61766;60.318;25.044;2024-02-26T13:18:21;9;9;
73517;PMS5003;61766;60.318;25.044;2024-02-26T13:20:46;11;11;
73517;PMS5003;61766;60.318;25.044;2024-02-26T13:23:12;7;7;
73517;PMS5003;61766;60.318;25.044;2024-02-26T13:25:37;5;5;
73517;PMS5003;61766;60.318;25.044;2024-02-26T13:28:07;7;7;
73517;PMS5003;61766;60.318;25.044;2024-02-26T13:30:27;8;8;
73517;PMS5003;61766;60.318;25.044;2024-02-26T13:32:52;6;6;
73517;PMS5003;61766;60.318;25.044;2024-02-26T13:35:17;6;6;
73517;PMS5003;61766;60.318;25.044;2024-02-26T13:37:42;4;4;
73517;PMS5003;61766;60.318;25.044;2024-02-26T13:40:08;5;5;
73517;PMS5003;61766;60.318;25.044;2024-02-26T13:42:33;5;5;
73517;PMS5003;61766;60.318;25.044;2024-02-26T13:44:58;4;4;
73517;PMS5003;61766;60.318;25.044;2024-02-26T13:47:23;5;5;
73517;PMS5003;61766;60.318;25.044;2024-02-26T13:49:48;5;4;
73517;PMS5003;61766;60.318;25.044;2024-02-26T13:52:13;3;3;
73517;PMS5003;61766;60.318;25.044;2024-02-26T13:54:38;6;6;
73517;PMS5003;61766;60.318;25.044;2024-02-26T13:57:04;3;3;
73517;PMS5003;61766;60.318;25.044;2024-02-26T13:59:29;4;4;
73517;PMS5003;61766;60.318;25.044;2024-02-26T14:01:54;4;4;
73517;PMS5003;61766;60.318;25.044;2024-02-26T14:04:19;4;4;
73517;PMS5003;61766;60.318;25.044;2024-02-26T14:06:45;5;5;
73517;PMS5003;61766;60.318;25.044;2024-02-26T14:09:10;4;4;
73517;PMS5003;61766;60.318;25.044;2024-02-26T14:11:35;3;3;
73517;PMS5003;61766;60.318;25.044;2024-02-26T14:14:00;3;3;
73517;PMS5003;61766;60.318;25.044;2024-02-26T14:16:25;5;4;
73517;PMS5003;61766;60.318;25.044;2024-02-26T14:18:51;5;5;
73517;PMS5003;61766;60.318;25.044;2024-02-26T14:21:16;4;4;
73517;PMS5003;61766;60.318;25.044;2024-02-26T14:23:41;4;4;
73517;PMS5003;61766;60.318;25.044;2024-02-26T14:26:06;5;5;
73517;PMS5003;61766;60.318;25.044;2024-02-26T14:28:31;6;6;
73517;PMS5003;61766;60.318;25.044;2024-02-26T14:30:56;5;5;
73517;PMS5003;61766;60.318;25.044;2024-02-26T14:33:22;7;7;
73517;PMS5003;61766;60.318;25.044;2024-02-26T14:35:47;7;7;
73517;PMS5003;61766;60.318;25.044;2024-02-26T14:38:12;6;5;
73517;PMS5003;61766;60.318;25.044;2024-02-26T14:40:37;4;4;
73517;PMS5003;61766;60.318;25.044;2024-02-26T14:43:02;7;7;
73517;PMS5003;61766;60.318;25.044;2024-02-26T14:45:28;4;4;
73517;PMS5003;61766;60.318;25.044;2024-02-26T14:47:53;4;4;
73517;PMS5003;61766;60.318;25.044;2024-02-26T14:50:18;6;6;
73517;PMS5003;61766;60.318;25.044;2024-02-26T14:52:43;7;5;
73517;PMS5003;61766;60.318;25.044;2024-02-26T14:55:09;4;4;
73517;PMS5003;61766;60.318;25.044;2024-02-26T14:57:34;6;6;
73517;PMS5003;61766;60.318;25.044;2024-02-26T14:59:59;6;6;
73517;PMS5003;61766;60.318;25.044;2024-02-26T15:02:25;7;6;
73517;PMS5003;61766;60.318;25.044;2024-02-26T15:04:50;6;6;
73517;PMS5003;61766;60.318;25.044;2024-02-26T15:07:15;6;6;
73517;PMS5003;61766;60.318;25.044;2024-02-26T15:09:40;7;7;
73517;PMS5003;61766;60.318;25.044;2024-02-26T15:12:05;8;8;
73517;PMS5003;61766;60.318;25.044;2024-02-26T15:14:30;8;7;
73517;PMS5003;61766;60.318;25.044;2024-02-26T15:16:56;6;6;
73517;PMS5003;61766;60.318;25.044;2024-02-26T15:19:21;7;7;
73517;PMS5003;61766;60.318;25.044;2024-02-26T15:21:46;7;6;
73517;PMS5003;61766;60.318;25.044;2024-02-26T15:24:11;7;7;
73517;PMS5003;61766;60.318;25.044;2024-02-26T15:26:36;7;7;
73517;PMS5003;61766;60.318;25.044;2024-02-26T15:29:01;6;6;
73517;PMS5003;61766;60.318;25.044;2024-02-26T15:31:27;8;8;
73517;PMS5003;61766;60.318;25.044;2024-02-26T15:33:52;8;7;
73517;PMS5003;61766;60.318;25.044;2024-02-26T15:36:17;8;8;
73517;PMS5003;61766;60.318;25.044;2024-02-26T15:38:42;10;9;
73517;PMS5003;61766;60.318;25.044;2024-02-26T15:41:10;9;9;
73517;PMS5003;61766;60.318;25.044;2024-02-26T15:43:32;11;9;
73517;PMS5003;61766;60.318;25.044;2024-02-26T15:45:57;8;8;
73517;PMS5003;61766;60.318;25.044;2024-02-26T15:48:23;6;6;
73517;PMS5003;61766;60.318;25.044;2024-02-26T15:50:48;9;8;
73517;PMS5003;61766;60.318;25.044;2024-02-26T15:53:13;7;7;
73517;PMS5003;61766;60.318;25.044;2024-02-26T15:55:38;7;7;
73517;PMS5003;61766;60.318;25.044;2024-02-26T15:58:07;9;9;
73517;PMS5003;61766;60.318;25.044;2024-02-26T16:00:28;7;7;
73517;PMS5003;61766;60.318;25.044;2024-02-26T16:02:54;9;9;
73517;PMS5003;61766;60.318;25.044;2024-02-26T16:05:19;8;7;
73517;PMS5003;61766;60.318;25.044;2024-02-26T16:07:45;7;7;